createdAt,value
2023-04-01T00:00:47.512Z,73.16
2023-04-01T00:01:47.464Z,73.15
2023-04-01T00:02:47.595Z,73.22
2023-04-01T00:03:47.655Z,73.05
2023-04-01T00:04:47.535Z,73.18
2023-04-01T00:05:47.455Z,73.10
2023-04-01T00:06:47.441Z,73.05
2023-04-01T00:07:47.401Z,73.03
2023-04-01T00:08:47.426Z,73.16
2023-04-01T00:09:47.449Z,73.20
2023-04-01T00:10:47.376Z,73.19
2023-04-01T00:11:47.341Z,72.97
2023-04-01T00:12:47.490Z,72.91
2023-04-01T00:13:47.331Z,72.95
2023-04-01T00:14:47.332Z,73.06
2023-04-01T00:15:47.531Z,72.88
2023-04-01T00:16:47.485Z,73.01
2023-04-01T00:17:47.298Z,73.00
2023-04-01T00:18:47.462Z,72.92
2023-04-01T00:19:47.263Z,72.76
2023-04-01T00:20:47.251Z,72.96
2023-04-01T00:21:47.233Z,72.95
2023-04-01T00:22:47.228Z,73.08
2023-04-01T00:23:47.496Z,72.89
2023-04-01T00:24:47.323Z,72.79
2023-04-01T00:25:47.327Z,72.81
2023-04-01T00:26:47.467Z,72.88
2023-04-01T00:27:47.162Z,72.50
2023-04-01T00:28:47.167Z,72.44
2023-04-01T00:29:47.179Z,72.58
2023-04-01T00:30:47.154Z,72.60
2023-04-01T00:31:47.147Z,72.69
2023-04-01T00:32:47.536Z,72.60
2023-04-01T00:33:47.110Z,72.71
2023-04-01T00:34:47.256Z,72.69
2023-04-01T00:35:47.083Z,72.56
2023-04-01T00:36:47.427Z,72.55
2023-04-01T00:37:47.056Z,72.41
2023-04-01T00:38:47.074Z,72.43
2023-04-01T00:39:47.049Z,72.53
2023-04-01T00:40:47.478Z,72.36
2023-04-01T00:41:47.088Z,72.39
2023-04-01T00:42:47.485Z,72.40
2023-04-01T00:43:47.091Z,72.62
2023-04-01T00:44:47.513Z,72.50
2023-04-01T00:45:47.101Z,72.44
2023-04-01T00:46:47.538Z,72.42
2023-04-01T00:47:46.968Z,72.49
2023-04-01T00:48:46.961Z,72.50
2023-04-01T00:49:46.963Z,72.64
2023-04-01T00:50:46.917Z,72.72
2023-04-01T00:51:46.874Z,72.54
2023-04-01T00:52:47.060Z,72.60
2023-04-01T00:53:46.858Z,72.68
2023-04-01T00:54:46.875Z,72.58
2023-04-01T00:55:46.837Z,72.58
2023-04-01T00:56:47.001Z,72.76
2023-04-01T00:57:46.820Z,72.78
2023-04-01T00:58:47.252Z,72.82
2023-04-01T00:59:46.814Z,72.87
2023-04-01T01:00:46.851Z,72.94
2023-04-01T01:01:46.795Z,72.99
2023-04-01T01:02:46.853Z,73.22
2023-04-01T01:03:46.744Z,73.19
2023-04-01T01:04:47.437Z,73.11
2023-04-01T01:05:49.590Z,73.07
2023-04-01T01:06:46.879Z,73.21
2023-04-01T01:07:47.171Z,73.26
2023-04-01T01:08:47.524Z,73.30
2023-04-01T01:09:47.008Z,73.36
2023-04-01T01:10:46.879Z,73.57
2023-04-01T01:11:46.668Z,73.34
2023-04-01T01:12:46.660Z,73.41
2023-04-01T01:13:46.654Z,73.37
2023-04-01T01:14:46.679Z,73.32
2023-04-01T01:15:46.696Z,73.34
2023-04-01T01:16:46.743Z,73.36
2023-04-01T01:17:46.626Z,73.37
2023-04-01T01:18:46.578Z,73.38
2023-04-01T01:19:46.738Z,73.47
2023-04-01T01:20:46.764Z,73.31
2023-04-01T01:21:46.540Z,73.37
2023-04-01T01:22:46.537Z,73.31
2023-04-01T01:23:46.505Z,73.31
2023-04-01T01:24:46.512Z,73.07
2023-04-01T01:25:46.575Z,72.97
2023-04-01T01:26:46.512Z,72.97
2023-04-01T01:27:46.459Z,72.94
2023-04-01T01:28:46.513Z,73.00
2023-04-01T01:29:46.441Z,73.15
2023-04-01T01:30:46.563Z,73.20
2023-04-01T01:31:46.419Z,73.25
2023-04-01T01:32:46.609Z,73.25
2023-04-01T01:33:46.506Z,73.40
2023-04-01T01:34:46.525Z,73.45
2023-04-01T01:35:46.382Z,73.34
2023-04-01T01:36:46.431Z,73.53
2023-04-01T01:37:46.458Z,73.53
2023-04-01T01:38:46.476Z,73.30
2023-04-01T01:39:46.340Z,73.25
2023-04-01T01:40:46.545Z,73.21
2023-04-01T01:41:46.313Z,73.30
2023-04-01T01:42:46.282Z,73.32
2023-04-01T01:43:46.312Z,73.33
2023-04-01T01:44:46.520Z,73.35
2023-04-01T01:45:46.535Z,73.41
2023-04-01T01:46:46.522Z,73.52
2023-04-01T01:47:46.255Z,73.60
2023-04-01T01:48:46.235Z,73.53
2023-04-01T01:49:46.216Z,73.51
2023-04-01T01:50:46.186Z,73.64
2023-04-01T01:51:46.186Z,73.60
2023-04-01T01:52:46.362Z,73.42
2023-04-01T01:53:46.196Z,73.50
2023-04-01T01:54:46.218Z,73.66
2023-04-01T01:55:46.150Z,73.75
2023-04-01T01:56:47.087Z,73.84
2023-04-01T01:57:46.113Z,73.91
2023-04-01T01:58:46.113Z,73.82
2023-04-01T01:59:46.207Z,73.72
2023-04-01T02:00:46.539Z,73.82
2023-04-01T02:01:46.104Z,73.79
2023-04-01T02:02:46.566Z,73.82
2023-04-01T02:03:46.069Z,73.85
2023-04-01T02:04:46.146Z,73.82
2023-04-01T02:05:46.537Z,73.78
2023-04-01T02:06:46.327Z,73.87
2023-04-01T02:07:46.000Z,73.94
2023-04-01T02:08:46.551Z,74.05
2023-04-01T02:09:45.997Z,74.03
2023-04-01T02:10:45.952Z,74.08
2023-04-01T02:11:46.546Z,74.06
2023-04-01T02:12:45.938Z,73.85
2023-04-01T02:13:45.932Z,73.83
2023-04-01T02:14:45.921Z,73.95
2023-04-01T02:15:45.923Z,74.02
2023-04-01T02:16:46.033Z,73.98
2023-04-01T02:17:45.946Z,73.83
2023-04-01T02:18:46.549Z,73.77
2023-04-01T02:19:45.867Z,73.78
2023-04-01T02:20:46.353Z,73.89
2023-04-01T02:21:45.838Z,73.78
2023-04-01T02:22:45.813Z,73.76
2023-04-01T02:23:45.847Z,73.81
2023-04-01T02:24:45.876Z,73.96
2023-04-01T02:25:45.922Z,73.85
2023-04-01T02:26:45.938Z,73.76
2023-04-01T02:27:45.962Z,73.79
2023-04-01T02:28:45.991Z,73.85
2023-04-01T02:29:45.752Z,74.01
2023-04-01T02:30:45.732Z,73.78
2023-04-01T02:31:45.761Z,73.78
2023-04-01T02:32:45.788Z,73.82
2023-04-01T02:33:45.696Z,73.84
2023-04-01T02:34:45.670Z,74.08
2023-04-01T02:35:45.696Z,74.15
2023-04-01T02:36:45.788Z,74.26
2023-04-01T02:37:45.648Z,74.40
2023-04-01T02:38:45.627Z,74.40
2023-04-01T02:39:45.645Z,74.39
2023-04-01T02:40:45.776Z,74.46
2023-04-01T02:41:45.787Z,74.57
2023-04-01T02:42:45.570Z,74.66
2023-04-01T02:43:45.576Z,74.66
2023-04-01T02:44:45.561Z,74.66
2023-04-01T02:45:45.573Z,74.78
2023-04-01T02:46:45.579Z,74.87
2023-04-01T02:47:46.005Z,74.62
2023-04-01T02:48:45.569Z,74.57
2023-04-01T02:49:45.510Z,74.81
2023-04-01T02:50:45.509Z,74.93
2023-04-01T02:51:45.483Z,75.03
2023-04-01T02:52:45.443Z,74.98
2023-04-01T02:53:45.462Z,74.89
2023-04-01T02:54:45.437Z,74.86
2023-04-01T02:55:45.446Z,74.90
2023-04-01T02:56:45.605Z,74.97
2023-04-01T02:57:45.413Z,74.99
2023-04-01T02:58:45.389Z,74.81
2023-04-01T02:59:45.390Z,74.92
2023-04-01T03:00:45.400Z,75.05
2023-04-01T03:01:45.358Z,75.01
2023-04-01T03:02:45.453Z,75.12
2023-04-01T03:03:45.585Z,75.19
2023-04-01T03:04:45.318Z,75.19
2023-04-01T03:05:45.338Z,75.33
2023-04-01T03:06:45.591Z,75.17
2023-04-01T03:07:45.303Z,75.10
2023-04-01T03:08:45.349Z,74.96
2023-04-01T03:09:45.275Z,75.13
2023-04-01T03:10:45.269Z,75.08
2023-04-01T03:11:45.288Z,75.23
2023-04-01T03:12:45.295Z,75.22
2023-04-01T03:13:45.220Z,75.07
2023-04-01T03:14:45.220Z,75.13
2023-04-01T03:15:45.219Z,75.15
2023-04-01T03:16:45.253Z,75.23
2023-04-01T03:17:45.230Z,75.21
2023-04-01T03:18:45.151Z,75.04
2023-04-01T03:19:45.150Z,75.11
2023-04-01T03:20:45.543Z,75.15
2023-04-01T03:21:45.136Z,75.06
2023-04-01T03:22:45.102Z,75.11
2023-04-01T03:23:45.109Z,75.03
2023-04-01T03:24:45.088Z,74.96
2023-04-01T03:25:45.085Z,75.15
2023-04-01T03:26:45.073Z,75.08
2023-04-01T03:27:45.612Z,74.89
2023-04-01T03:28:45.086Z,74.70
2023-04-01T03:29:45.084Z,74.79
2023-04-01T03:30:45.630Z,74.70
2023-04-01T03:31:45.005Z,74.82
2023-04-01T03:32:45.144Z,74.61
2023-04-01T03:33:44.999Z,74.67
2023-04-01T03:34:44.958Z,75.09
2023-04-01T03:35:44.978Z,74.93
2023-04-01T03:36:45.422Z,74.50
2023-04-01T03:37:44.960Z,74.24
2023-04-01T03:38:44.929Z,74.35
2023-04-01T03:39:44.924Z,74.23
2023-04-01T03:40:44.896Z,74.04
2023-04-01T03:41:44.907Z,74.20
2023-04-01T03:42:44.909Z,74.14
2023-04-01T03:43:44.889Z,74.09
2023-04-01T03:44:45.611Z,74.24
2023-04-01T03:45:45.395Z,74.03
2023-04-01T03:46:44.999Z,73.98
2023-04-01T03:47:44.952Z,73.76
2023-04-01T03:48:44.812Z,73.55
2023-04-01T03:49:44.807Z,73.33
2023-04-01T03:50:44.777Z,73.24
2023-04-01T03:51:44.835Z,73.20
2023-04-01T03:52:44.822Z,73.07
2023-04-01T03:53:44.845Z,72.95
2023-04-01T03:54:44.844Z,72.98
2023-04-01T03:55:44.735Z,73.10
2023-04-01T03:56:44.697Z,73.13
2023-04-01T03:57:44.703Z,73.26
2023-04-01T03:58:44.690Z,73.26
2023-04-01T03:59:44.764Z,73.19
2023-04-01T04:00:44.799Z,72.87
2023-04-01T04:01:44.828Z,72.97
2023-04-01T04:02:44.793Z,73.20
2023-04-01T04:03:44.979Z,73.40
2023-04-01T04:04:44.758Z,73.41
2023-04-01T04:05:44.612Z,73.47
2023-04-01T04:06:44.596Z,73.38
2023-04-01T04:07:44.636Z,73.38
2023-04-01T04:08:44.636Z,73.23
2023-04-01T04:09:44.635Z,73.19
2023-04-01T04:10:44.570Z,73.18
2023-04-01T04:11:44.539Z,73.03
2023-04-01T04:12:44.631Z,73.11
2023-04-01T04:13:44.517Z,72.78
2023-04-01T04:14:44.494Z,73.03
2023-04-01T04:15:45.187Z,72.85
2023-04-01T04:16:44.639Z,72.46
2023-04-01T04:17:45.223Z,72.66
2023-04-01T04:18:44.457Z,72.36
2023-04-01T04:19:45.204Z,72.36
2023-04-01T04:20:44.460Z,72.02
2023-04-01T04:21:44.472Z,72.24
2023-04-01T04:22:45.230Z,72.19
2023-04-01T04:23:45.271Z,72.32
2023-04-01T04:24:44.648Z,72.28
2023-04-01T04:25:45.278Z,71.94
2023-04-01T04:26:44.373Z,71.92
2023-04-01T04:27:44.601Z,71.89
2023-04-01T04:28:44.378Z,71.63
2023-04-01T04:29:44.450Z,71.72
2023-04-01T04:30:45.140Z,71.39
2023-04-01T04:31:45.362Z,71.55
2023-04-01T04:32:44.691Z,71.64
2023-04-01T04:33:44.530Z,71.47
2023-04-01T04:34:44.654Z,71.37
2023-04-01T04:35:44.323Z,71.58
2023-04-01T04:36:44.661Z,71.75
2023-04-01T04:37:44.257Z,71.45
2023-04-01T04:38:44.213Z,71.61
2023-04-01T04:39:44.441Z,71.59
2023-04-01T04:40:44.656Z,71.58
2023-04-01T04:41:45.358Z,71.72
2023-04-01T04:42:44.209Z,71.68
2023-04-01T04:43:45.160Z,71.69
2023-04-01T04:44:44.663Z,71.63
2023-04-01T04:45:44.144Z,71.90
2023-04-01T04:46:44.265Z,71.39
2023-04-01T04:47:44.214Z,71.43
2023-04-01T04:48:44.223Z,71.46
2023-04-01T04:49:44.257Z,71.56
2023-04-01T04:50:44.289Z,71.66
2023-04-01T04:51:44.084Z,71.71
2023-04-01T04:52:44.353Z,71.73
2023-04-01T04:53:44.050Z,71.70
2023-04-01T04:54:44.022Z,71.69
2023-04-01T04:55:44.288Z,71.71
2023-04-01T04:56:44.514Z,71.39
2023-04-01T04:57:44.507Z,71.54
2023-04-01T04:58:44.262Z,71.32
2023-04-01T04:59:44.577Z,71.23
2023-04-01T05:00:44.610Z,71.29
2023-04-01T05:01:44.190Z,71.25
2023-04-01T05:02:43.953Z,71.39
2023-04-01T05:03:44.177Z,71.77
2023-04-01T05:04:44.307Z,72.06
2023-04-01T05:05:44.675Z,71.89
2023-04-01T05:06:44.676Z,72.05
2023-04-01T05:07:43.885Z,72.25
2023-04-01T05:08:43.858Z,72.11
2023-04-01T05:09:43.859Z,72.29
2023-04-01T05:10:43.836Z,72.19
2023-04-01T05:11:43.903Z,72.13
2023-04-01T05:12:43.913Z,72.30
2023-04-01T05:13:43.953Z,71.94
2023-04-01T05:14:43.938Z,71.96
2023-04-01T05:15:43.957Z,72.07
2023-04-01T05:16:43.789Z,72.28
2023-04-01T05:17:43.990Z,72.52
2023-04-01T05:18:43.995Z,72.71
2023-04-01T05:19:44.012Z,72.66
2023-04-01T05:20:43.713Z,72.63
2023-04-01T05:21:44.071Z,72.72
2023-04-01T05:22:43.721Z,72.89
2023-04-01T05:23:43.696Z,72.62
2023-04-01T05:24:43.675Z,72.63
2023-04-01T05:25:43.705Z,72.46
2023-04-01T05:26:43.665Z,72.66
2023-04-01T05:27:43.693Z,72.77
2023-04-01T05:28:43.692Z,72.51
2023-04-01T05:29:43.640Z,72.50
2023-04-01T05:30:43.755Z,72.76
2023-04-01T05:31:43.709Z,72.89
2023-04-01T05:32:43.610Z,72.87
2023-04-01T05:33:43.587Z,72.92
2023-04-01T05:34:43.546Z,73.11
2023-04-01T05:35:43.857Z,73.24
2023-04-01T05:36:43.695Z,73.22
2023-04-01T05:37:43.702Z,73.22
2023-04-01T05:38:43.549Z,73.05
2023-04-01T05:39:43.498Z,73.15
2023-04-01T05:40:43.479Z,73.26
2023-04-01T05:41:43.489Z,73.42
2023-04-01T05:42:43.457Z,73.68
2023-04-01T05:43:43.704Z,73.84
2023-04-01T05:44:43.706Z,73.77
2023-04-01T05:45:43.715Z,73.82
2023-04-01T05:46:43.418Z,73.91
2023-04-01T05:47:43.444Z,74.15
2023-04-01T05:48:43.404Z,74.19
2023-04-01T05:49:43.400Z,74.02
2023-04-01T05:50:43.360Z,73.69
2023-04-01T05:51:44.278Z,73.81
2023-04-01T05:52:43.727Z,74.18
2023-04-01T05:53:43.715Z,74.24
2023-04-01T05:54:43.331Z,74.23
2023-04-01T05:55:43.292Z,74.19
2023-04-01T05:56:43.317Z,74.31
2023-04-01T05:57:43.288Z,74.28
2023-04-01T05:58:43.717Z,74.25
2023-04-01T05:59:43.454Z,74.04
2023-04-01T06:00:43.721Z,74.13
2023-04-01T06:01:43.260Z,74.18
2023-04-01T06:02:43.363Z,74.25
2023-04-01T06:03:43.578Z,74.19
2023-04-01T06:04:43.289Z,74.11
2023-04-01T06:05:43.178Z,74.14
2023-04-01T06:06:43.506Z,74.29
2023-04-01T06:07:43.722Z,74.56
2023-04-01T06:08:43.724Z,74.64
2023-04-01T06:09:43.720Z,74.44
2023-04-01T06:10:43.198Z,74.38
2023-04-01T06:11:43.148Z,74.33
2023-04-01T06:12:43.163Z,74.39
2023-04-01T06:13:43.087Z,74.48
2023-04-01T06:14:43.086Z,74.41
2023-04-01T06:15:43.261Z,74.16
2023-04-01T06:16:43.411Z,74.02
2023-04-01T06:17:44.890Z,73.89
2023-04-01T06:18:43.045Z,73.98
2023-04-01T06:19:43.034Z,74.12
2023-04-01T06:20:43.017Z,73.96
2023-04-01T06:21:43.523Z,73.93
2023-04-01T06:22:43.007Z,73.79
2023-04-01T06:23:43.475Z,73.94
2023-04-01T06:24:43.602Z,73.86
2023-04-01T06:25:42.956Z,73.87
2023-04-01T06:26:42.952Z,73.94
2023-04-01T06:27:42.997Z,74.06
2023-04-01T06:28:42.967Z,73.81
2023-04-01T06:29:42.892Z,73.78
2023-04-01T06:30:43.017Z,73.79
2023-04-01T06:31:43.091Z,73.76
2023-04-01T06:32:43.078Z,73.26
2023-04-01T06:33:43.040Z,73.23
2023-04-01T06:34:42.877Z,73.33
2023-04-01T06:35:42.892Z,73.32
2023-04-01T06:36:42.835Z,73.30
2023-04-01T06:37:42.819Z,73.33
2023-04-01T06:38:43.117Z,73.22
2023-04-01T06:39:43.123Z,73.29
2023-04-01T06:40:42.798Z,73.39
2023-04-01T06:41:42.760Z,73.31
2023-04-01T06:42:42.800Z,72.71
2023-04-01T06:43:42.768Z,72.85
2023-04-01T06:44:42.743Z,72.52
2023-04-01T06:45:42.741Z,73.18
2023-04-01T06:46:42.719Z,73.23
2023-04-01T06:47:44.991Z,72.87
2023-04-01T06:48:42.763Z,73.08
2023-04-01T06:49:42.759Z,72.67
2023-04-01T06:50:42.670Z,72.74
2023-04-01T06:51:43.220Z,73.16
2023-04-01T06:52:43.173Z,73.44
2023-04-01T06:53:42.652Z,73.59
2023-04-01T06:54:42.692Z,73.63
2023-04-01T06:55:42.709Z,73.74
2023-04-01T06:56:42.746Z,73.62
2023-04-01T06:57:42.771Z,73.37
2023-04-01T06:58:42.726Z,73.31
2023-04-01T06:59:42.571Z,73.40
2023-04-01T07:00:42.559Z,73.58
2023-04-01T07:01:42.768Z,73.40
2023-04-01T07:02:43.013Z,73.40
2023-04-01T07:03:42.778Z,73.41
2023-04-01T07:04:42.762Z,73.05
2023-04-01T07:05:42.769Z,72.56
2023-04-01T07:06:42.485Z,72.42
2023-04-01T07:07:42.470Z,72.83
2023-04-01T07:08:42.462Z,73.14
2023-04-01T07:09:42.444Z,73.16
2023-04-01T07:10:43.233Z,72.75
2023-04-01T07:11:42.782Z,72.27
2023-04-01T07:12:42.776Z,72.58
2023-04-01T07:13:42.773Z,72.57
2023-04-01T07:14:42.406Z,72.37
2023-04-01T07:15:43.370Z,72.52
2023-04-01T07:16:42.423Z,72.72
2023-04-01T07:17:42.677Z,73.06
2023-04-01T07:18:42.590Z,73.49
2023-04-01T07:19:42.773Z,72.86
2023-04-01T07:20:42.776Z,72.42
2023-04-01T07:21:42.779Z,72.97
2023-04-01T07:22:42.476Z,73.11
2023-04-01T07:23:42.264Z,72.65
2023-04-01T07:24:43.030Z,72.48
2023-04-01T07:25:42.772Z,72.57
2023-04-01T07:26:42.780Z,72.73
2023-04-01T07:27:42.549Z,72.72
2023-04-01T07:28:42.788Z,72.52
2023-04-01T07:29:42.720Z,72.46
2023-04-01T07:30:42.813Z,72.28
2023-04-01T07:31:42.779Z,72.65
2023-04-01T07:32:42.682Z,72.46
2023-04-01T07:33:42.671Z,72.38
2023-04-01T07:34:43.107Z,72.18
2023-04-01T07:35:42.813Z,72.24
2023-04-01T07:36:42.170Z,72.37
2023-04-01T07:37:42.202Z,72.12
2023-04-01T07:38:42.283Z,72.48
2023-04-01T07:39:42.268Z,72.12
2023-04-01T07:40:42.302Z,72.02
2023-04-01T07:41:42.332Z,71.97
2023-04-01T07:42:42.398Z,72.13
2023-04-01T07:43:42.413Z,72.15
2023-04-01T07:44:42.406Z,72.67
2023-04-01T07:45:42.429Z,72.80
2023-04-01T07:46:42.484Z,72.41
2023-04-01T07:47:42.044Z,72.18
2023-04-01T07:48:42.029Z,72.12
2023-04-01T07:49:42.033Z,72.04
2023-04-01T07:50:42.048Z,71.93
2023-04-01T07:51:42.051Z,72.05
2023-04-01T07:52:42.083Z,71.96
2023-04-01T07:53:42.099Z,71.44
2023-04-01T07:54:42.104Z,71.63
2023-04-01T07:55:42.119Z,71.77
2023-04-01T07:56:42.142Z,71.42
2023-04-01T07:57:42.143Z,71.92
2023-04-01T07:58:42.194Z,71.87
2023-04-01T07:59:42.177Z,72.52
2023-04-01T08:00:42.215Z,71.97
2023-04-01T08:01:42.016Z,71.66
2023-04-01T08:02:42.310Z,71.89
2023-04-01T08:03:42.431Z,72.12
2023-04-01T08:04:41.869Z,71.39
2023-04-01T08:05:43.959Z,71.52
2023-04-01T08:06:42.266Z,71.71
2023-04-01T08:07:41.823Z,70.98
2023-04-01T08:08:41.817Z,71.02
2023-04-01T08:09:41.818Z,70.93
2023-04-01T08:10:42.342Z,70.76
2023-04-01T08:11:43.676Z,70.83
2023-04-01T08:12:41.833Z,70.82
2023-04-01T08:13:42.377Z,71.11
2023-04-01T08:14:41.835Z,71.52
2023-04-01T08:15:41.822Z,70.79
2023-04-01T08:16:41.983Z,70.96
2023-04-01T08:17:41.720Z,70.00
2023-04-01T08:18:41.663Z,70.17
2023-04-01T08:19:41.727Z,69.89
2023-04-01T08:20:41.735Z,70.03
2023-04-01T08:21:41.804Z,70.29
2023-04-01T08:22:41.836Z,70.14
2023-04-01T08:23:41.820Z,70.10
2023-04-01T08:24:47.773Z,70.06
2023-04-01T08:25:42.559Z,70.07
2023-04-01T08:26:41.829Z,70.02
2023-04-01T08:27:41.824Z,69.14
2023-04-01T08:28:41.838Z,69.22
2023-04-01T08:29:41.826Z,69.31
2023-04-01T08:30:41.837Z,70.12
2023-04-01T08:31:41.956Z,69.56
2023-04-01T08:32:41.855Z,69.37
2023-04-01T08:33:41.834Z,69.10
2023-04-01T08:34:42.289Z,69.08
2023-04-01T08:35:42.008Z,69.84
2023-04-01T08:36:41.820Z,69.43
2023-04-01T08:37:41.818Z,69.79
2023-04-01T08:38:41.852Z,69.35
2023-04-01T08:39:41.831Z,69.66
2023-04-01T08:40:41.838Z,69.16
2023-04-01T08:41:42.283Z,69.24
2023-04-01T08:42:41.359Z,69.67
2023-04-01T08:43:41.827Z,69.73
2023-04-01T08:44:42.507Z,69.66
2023-04-01T08:45:41.374Z,69.97
2023-04-01T08:46:42.272Z,69.72
2023-04-01T08:47:41.855Z,69.77
2023-04-01T08:48:41.289Z,69.94
2023-04-01T08:49:42.026Z,69.98
2023-04-01T08:50:41.290Z,69.82
2023-04-01T08:51:41.257Z,69.37
2023-04-01T08:52:41.273Z,69.11
2023-04-01T08:53:41.217Z,69.54
2023-04-01T08:54:41.589Z,69.33
2023-04-01T08:55:41.849Z,68.86
2023-04-01T08:56:41.848Z,69.18
2023-04-01T08:57:42.276Z,69.54
2023-04-01T08:58:41.218Z,69.37
2023-04-01T08:59:41.209Z,69.18
2023-04-01T09:00:41.261Z,69.39
2023-04-01T09:01:41.117Z,69.51
2023-04-01T09:02:41.418Z,69.39
2023-04-01T09:03:41.472Z,69.78
2023-04-01T09:04:41.407Z,69.57
2023-04-01T09:05:41.097Z,69.25
2023-04-01T09:06:41.065Z,69.37
2023-04-01T09:07:41.071Z,69.32
2023-04-01T09:08:41.061Z,69.72
2023-04-01T09:09:41.034Z,69.96
2023-04-01T09:10:41.141Z,70.53
2023-04-01T09:11:41.228Z,70.64
2023-04-01T09:12:41.005Z,70.98
2023-04-01T09:13:41.194Z,71.27
2023-04-01T09:14:40.992Z,70.79
2023-04-01T09:15:41.018Z,69.39
2023-04-01T09:16:41.069Z,69.43
2023-04-01T09:17:40.995Z,69.28
2023-04-01T09:18:41.259Z,69.68
2023-04-01T09:19:41.270Z,69.79
2023-04-01T09:20:40.915Z,70.08
2023-04-01T09:21:40.887Z,70.39
2023-04-01T09:22:40.900Z,70.45
2023-04-01T09:23:40.889Z,69.24
2023-04-01T09:24:40.886Z,69.89
2023-04-01T09:25:40.843Z,70.30
2023-04-01T09:26:40.880Z,70.01
2023-04-01T09:27:40.881Z,69.55
2023-04-01T09:28:40.897Z,69.45
2023-04-01T09:29:40.842Z,69.35
2023-04-01T09:30:40.817Z,68.89
2023-04-01T09:31:40.828Z,69.22
2023-04-01T09:32:40.809Z,69.70
2023-04-01T09:33:40.748Z,69.17
2023-04-01T09:34:40.890Z,69.74
2023-04-01T09:35:40.830Z,69.74
2023-04-01T09:36:40.751Z,69.65
2023-04-01T09:37:40.727Z,70.07
2023-04-01T09:38:40.708Z,70.57
2023-04-01T09:39:40.684Z,69.98
2023-04-01T09:40:40.703Z,70.05
2023-04-01T09:41:40.732Z,69.81
2023-04-01T09:42:40.794Z,70.25
2023-04-01T09:43:40.846Z,70.83
2023-04-01T09:44:41.809Z,70.37
2023-04-01T09:45:40.619Z,70.43
2023-04-01T09:46:40.757Z,70.71
2023-04-01T09:47:40.641Z,70.21
2023-04-01T09:48:40.590Z,70.23
2023-04-01T09:49:40.586Z,70.63
2023-04-01T09:50:40.911Z,70.32
2023-04-01T09:51:40.564Z,69.38
2023-04-01T09:52:40.914Z,69.87
2023-04-01T09:53:40.531Z,70.19
2023-04-01T09:54:40.599Z,69.72
2023-04-01T09:55:40.509Z,70.14
2023-04-01T09:56:40.542Z,70.57
2023-04-01T09:57:40.577Z,69.65
2023-04-01T09:58:43.785Z,68.64
2023-04-01T09:59:40.903Z,68.85
2023-04-01T10:00:40.466Z,70.01
2023-04-01T10:01:40.502Z,70.18
2023-04-01T10:02:40.474Z,68.63
2023-04-01T10:03:40.415Z,68.11
2023-04-01T10:04:40.421Z,68.68
2023-04-01T10:05:40.437Z,69.48
2023-04-01T10:06:40.946Z,69.28
2023-04-01T10:07:40.911Z,68.97
2023-04-01T10:08:40.361Z,69.18
2023-04-01T10:09:40.373Z,68.64
2023-04-01T10:10:40.345Z,69.20
2023-04-01T10:11:40.361Z,69.04
2023-04-01T10:12:40.313Z,68.58
2023-04-01T10:13:40.297Z,68.21
2023-04-01T10:14:40.943Z,68.78
2023-04-01T10:15:40.919Z,68.30
2023-04-01T10:16:41.096Z,68.21
2023-04-01T10:17:40.365Z,67.56
2023-04-01T10:18:40.225Z,68.18
2023-04-01T10:19:40.228Z,69.19
2023-04-01T10:20:40.211Z,69.27
2023-04-01T10:21:40.206Z,69.62
2023-04-01T10:22:40.286Z,70.08
2023-04-01T10:23:40.329Z,70.57
2023-04-01T10:24:40.156Z,68.76
2023-04-01T10:25:40.170Z,68.37
2023-04-01T10:26:40.144Z,69.68
2023-04-01T10:27:40.177Z,70.38
2023-04-01T10:28:40.141Z,70.51
2023-04-01T10:29:40.111Z,70.68
2023-04-01T10:30:40.200Z,71.06
2023-04-01T10:31:40.275Z,71.83
2023-04-01T10:32:40.131Z,71.80
2023-04-01T10:33:40.236Z,71.06
2023-04-01T10:34:40.257Z,71.26
2023-04-01T10:35:40.072Z,72.07
2023-04-01T10:36:40.223Z,72.01
2023-04-01T10:37:40.048Z,72.91
2023-04-01T10:38:40.307Z,72.91
2023-04-01T10:39:40.332Z,72.87
2023-04-01T10:40:40.354Z,72.75
2023-04-01T10:41:39.986Z,72.95
2023-04-01T10:42:39.947Z,73.29
2023-04-01T10:43:39.952Z,72.97
2023-04-01T10:44:39.929Z,73.29
2023-04-01T10:45:39.956Z,74.10
2023-04-01T10:46:39.969Z,74.32
2023-04-01T10:47:40.029Z,73.39
2023-04-01T10:48:39.923Z,73.60
2023-04-01T10:49:39.894Z,74.38
2023-04-01T10:50:39.876Z,73.71
2023-04-01T10:51:39.941Z,74.88
2023-04-01T10:52:39.820Z,75.27
2023-04-01T10:53:39.826Z,74.99
2023-04-01T10:54:39.970Z,75.16
2023-04-01T10:55:39.950Z,74.60
2023-04-01T10:56:39.941Z,74.36
2023-04-01T10:57:39.816Z,75.11
2023-04-01T10:58:39.945Z,74.68
2023-04-01T10:59:39.753Z,74.97
2023-04-01T11:00:39.737Z,74.93
2023-04-01T11:01:39.804Z,74.43
2023-04-01T11:02:39.805Z,74.67
2023-04-01T11:03:39.771Z,75.71
2023-04-01T11:04:39.687Z,75.48
2023-04-01T11:05:39.693Z,75.72
2023-04-01T11:06:39.669Z,75.47
2023-04-01T11:07:39.697Z,75.60
2023-04-01T11:08:39.960Z,75.80
2023-04-01T11:09:39.646Z,75.93
2023-04-01T11:10:39.946Z,76.48
2023-04-01T11:11:39.952Z,75.50
2023-04-01T11:12:39.952Z,74.68
2023-04-01T11:13:39.618Z,74.80
2023-04-01T11:14:39.560Z,74.57
2023-04-01T11:15:39.710Z,74.77
2023-04-01T11:16:39.658Z,74.45
2023-04-01T11:17:39.633Z,74.51
2023-04-01T11:18:39.708Z,74.87
2023-04-01T11:19:39.627Z,74.70
2023-04-01T11:20:39.986Z,74.86
2023-04-01T11:21:39.963Z,75.22
2023-04-01T11:22:39.478Z,75.90
2023-04-01T11:23:39.505Z,76.04
2023-04-01T11:24:39.630Z,76.06
2023-04-01T11:25:39.960Z,75.80
2023-04-01T11:26:39.993Z,75.78
2023-04-01T11:27:39.982Z,75.90
2023-04-01T11:28:40.592Z,75.38
2023-04-01T11:29:44.326Z,74.89
2023-04-01T11:30:40.396Z,73.71
2023-04-01T11:31:39.449Z,73.46
2023-04-01T11:32:40.248Z,74.32
2023-04-01T11:33:39.367Z,73.18
2023-04-01T11:34:39.776Z,74.28
2023-04-01T11:35:39.975Z,75.05
2023-04-01T11:36:40.335Z,74.77
2023-04-01T11:37:39.976Z,74.67
2023-04-01T11:38:39.983Z,75.73
2023-04-01T11:39:40.052Z,75.09
2023-04-01T11:40:40.277Z,74.71
2023-04-01T11:41:39.976Z,74.84
2023-04-01T11:42:39.275Z,75.16
2023-04-01T11:43:39.258Z,75.03
2023-04-01T11:44:39.224Z,74.19
2023-04-01T11:45:39.276Z,73.96
2023-04-01T11:46:39.224Z,73.80
2023-04-01T11:47:39.251Z,73.10
2023-04-01T11:48:39.300Z,73.58
2023-04-01T11:49:39.304Z,73.68
2023-04-01T11:50:39.317Z,73.76
2023-04-01T11:51:39.174Z,74.55
2023-04-01T11:52:39.322Z,73.88
2023-04-01T11:53:39.364Z,72.39
2023-04-01T11:54:39.368Z,72.83
2023-04-01T11:55:39.087Z,73.47
2023-04-01T11:56:39.381Z,74.50
2023-04-01T11:57:39.420Z,75.02
2023-04-01T11:58:39.451Z,74.95
2023-04-01T11:59:39.471Z,74.97
2023-04-01T12:00:39.455Z,75.02
2023-04-01T12:01:39.022Z,75.25
2023-04-01T12:02:39.084Z,75.51
2023-04-01T12:03:39.256Z,75.72
2023-04-01T12:04:39.026Z,76.19
2023-04-01T12:05:38.987Z,76.45
2023-04-01T12:06:38.983Z,76.43
2023-04-01T12:07:38.982Z,75.42
2023-04-01T12:08:38.950Z,75.22
2023-04-01T12:09:38.999Z,75.57
2023-04-01T12:10:38.911Z,75.65
2023-04-01T12:11:38.916Z,75.65
2023-04-01T12:12:41.506Z,76.16
2023-04-01T12:13:39.900Z,76.11
2023-04-01T12:14:39.002Z,76.42
2023-04-01T12:15:39.042Z,75.79
2023-04-01T12:16:38.919Z,75.51
2023-04-01T12:17:38.892Z,74.86
2023-04-01T12:18:38.822Z,75.20
2023-04-01T12:19:38.838Z,75.64
2023-04-01T12:20:38.784Z,75.32
2023-04-01T12:21:39.600Z,75.44
2023-04-01T12:22:39.007Z,72.51
2023-04-01T12:23:38.780Z,74.74
2023-04-01T12:24:38.798Z,74.31
2023-04-01T12:25:38.741Z,74.21
2023-04-01T12:26:38.720Z,74.20
2023-04-01T12:27:38.743Z,74.35
2023-04-01T12:28:38.693Z,74.22
2023-04-01T12:29:38.690Z,73.61
2023-04-01T12:30:38.693Z,73.41
2023-04-01T12:31:38.696Z,73.86
2023-04-01T12:32:38.678Z,74.73
2023-04-01T12:33:38.781Z,74.97
2023-04-01T12:34:38.633Z,74.47
2023-04-01T12:35:39.054Z,73.73
2023-04-01T12:36:38.611Z,74.11
2023-04-01T12:37:38.634Z,74.62
2023-04-01T12:38:39.016Z,74.60
2023-04-01T12:39:38.582Z,74.62
2023-04-01T12:40:38.550Z,74.74
2023-04-01T12:41:38.571Z,74.59
2023-04-01T12:42:38.519Z,74.94
2023-04-01T12:43:38.540Z,74.49
2023-04-01T12:44:38.509Z,74.34
2023-04-01T12:45:38.554Z,74.78
2023-04-01T12:46:39.050Z,74.88
2023-04-01T12:47:38.513Z,74.93
2023-04-01T12:48:38.488Z,75.46
2023-04-01T12:49:38.470Z,75.03
2023-04-01T12:50:38.449Z,74.56
2023-04-01T12:51:38.436Z,74.92
2023-04-01T12:52:38.429Z,75.30